KGLW/GLW METAR and TAF weather

Enter ICAO airport designator
Station Type Date Time Source
KGLW METAR 2021/04/12 03:35 UTC NOAA

KGLW 120335Z AUTO 00000KT 10SM CLR 10/03 A2966 RMK AO2 T01010031


Station Type Date Time Source
KGLW Decoded METAR 2021/04/12 03:35 UTC NOAA

Glasgow, Glasgow Municipal Airport, KY, United States (KGLW) 37-01-54N 085-57-13W
Apr 11, 2021 - 11:35 PM EDT / 2021.04.12 0335 UTC
Wind: Calm:0
Visibility: 10 mile(s):0
Sky conditions: clear
Temperature: 50.2 F (10.1 C)
Dew Point: 37.6 F (3.1 C)
Relative Humidity: 61%
Pressure (altimeter): 29.66 in. Hg (1004 hPa)
ob: KGLW 120335Z AUTO 00000KT 10SM CLR 10/03 A2966 RMK AO2 T01010031
cycle: 3

Station Type Date Time Source
KGLW TAF UTC NOAA

Error!

Example: see airport list